Airfield :
LOGIN :

Register | Disclaimer

   EN    FR    IT 

 










Legend :    VFR   Marginal VFR   IFR   Intensive IFR   Very Intensive IFR
Visi :
Ceiling :
>= 8 km
>= 3000ft
5 to 8 km
1000 to 3000 ft
1500m to 5 km
500 to 1000 ft
800 to 1500m
200 to 500 ft
< 800m
< 200 ft
Symbols :   Thunderstorms  Fog  Heavy snow  Heavy precipitations  Wind > 20 kt
SIGMETs :     Misc.  Thunderstorms  Icing  Turbulence  Mountain Waves  Volcanic Ashes







- Airport Elevation : 97 ft
- IATA code : EBJ


EKEB - Esbjerg

CURRENT METAR :
  • 141820Z AUTO 08003KT 9999 BKN008/// BKN026/// 01/01 Q1029

EXPIRED METARs :
  • 141750Z AUTO 07004KT 040V120 9999 SCT012/// BKN033/// BKN049/// 02/01 Q1029
  • 141720Z AUTO 06003KT 9999 FEW013/// SCT014/// BKN053/// 02/01 Q1029
  • 141650Z AUTO 07003KT 9999 FEW027/// BKN053/// 01/01 Q1029
  • 141620Z AUTO 06004KT 9999 OVC053/// 02/01 Q1029
  • 141550Z AUTO 04006KT 9999 OVC052/// 02/01 Q1029

TAF TAF EKEB
Valid from the 14 at 18:00 until the 14 at 23:00 UTC


141725Z 1418/1423 06006KT 9999 BKN045
No reported NOTAMs for that airfield.



MET'MAP, your aeronautical weather chart ! - Copyright ORBIFLY December 2007 - Disclaimer

ORBIFLY MET'MAP TEAM :

Programming & Development : Alexandra Zaïnal
Concept & Development : Baudouin d'Aumeries
Co-Development & Prog : Marc-Olivier Méhu
Technical & hardware support : Manuel Goepfert

Contact : metmap@orbifly.com




SOURCES & CREDITS :

   NOAA